Time;durP1;ratioP1;P1;durP2;ratioP2;P2;SDS_P1;SDS_P2;PMS_P1;PMS_P2;Temp;Humidity;BMP_temperature;BMP_pressure;BME280_temperature;BME280_humidity;BME280_pressure;Samples;Min_cycle;Max_cycle;Signal;HPM_P1;HPM_P2
2021/03/01 00:00:25;;;;;;;41.00;14.90;;;3.10;99.90;;;;;;5038641;28;20040;-78
2021/03/01 00:02:51;;;;;;;43.25;15.32;;;3.10;99.90;;;;;;5038842;28;20037;-79
2021/03/01 00:05:18;;;;;;;46.05;15.18;;;3.00;99.90;;;;;;5038138;28;20120;-77
2021/03/01 00:07:44;;;;;;;46.17;16.67;;;3.00;99.90;;;;;;5037837;28;20029;-78
2021/03/01 00:10:11;;;;;;;39.78;14.55;;;3.00;99.90;;;;;;5020235;28;20375;-77
2021/03/01 00:12:37;;;;;;;42.58;14.98;;;2.90;99.90;;;;;;5037748;28;20040;-78
2021/03/01 00:15:07;;;;;;;37.58;14.90;;;2.80;99.90;;;;;;5038342;28;20056;-78
2021/03/01 00:17:33;;;;;;;44.83;15.32;;;2.80;99.90;;;;;;5030343;28;20029;-79
2021/03/01 00:19:59;;;;;;;38.83;14.20;;;2.70;99.90;;;;;;5037706;28;20472;-78
2021/03/01 00:22:25;;;;;;;33.75;13.93;;;2.60;99.90;;;;;;5037963;28;20041;-78
2021/03/01 00:24:51;;;;;;;35.13;14.10;;;2.60;99.90;;;;;;5036287;28;20079;-77
2021/03/01 00:27:16;;;;;;;39.85;14.70;;;2.50;99.90;;;;;;5037403;28;20071;-78
2021/03/01 00:29:42;;;;;;;31.92;13.65;;;2.50;99.90;;;;;;5037661;28;21028;-79
2021/03/01 00:32:08;;;;;;;29.63;11.95;;;2.40;99.90;;;;;;5036356;28;20029;-78
2021/03/01 00:34:34;;;;;;;27.70;12.80;;;2.40;99.90;;;;;;5037724;28;20100;-77
2021/03/01 00:36:59;;;;;;;35.15;12.35;;;2.40;99.90;;;;;;5018791;28;20037;-78
2021/03/01 00:39:25;;;;;;;39.33;12.85;;;2.40;99.90;;;;;;5024240;28;20691;-78
2021/03/01 00:41:51;;;;;;;28.70;11.90;;;2.40;99.90;;;;;;5037666;28;20029;-78
2021/03/01 00:44:17;;;;;;;29.17;12.32;;;2.50;99.90;;;;;;5037636;28;20040;-78
2021/03/01 00:46:43;;;;;;;27.10;12.23;;;2.50;99.90;;;;;;5037362;28;20144;-78
2021/03/01 00:49:09;;;;;;;30.45;12.85;;;2.60;99.90;;;;;;5037190;28;20039;-78
2021/03/01 00:51:35;;;;;;;33.58;13.57;;;2.60;99.90;;;;;;5037199;28;20049;-77
2021/03/01 00:54:01;;;;;;;28.38;11.93;;;2.60;99.90;;;;;;5052827;28;20064;-78
2021/03/01 00:56:33;;;;;;;29.23;11.55;;;2.60;99.90;;;;;;5048114;28;20044;-78
2021/03/01 00:58:59;;;;;;;28.60;12.23;;;2.70;99.90;;;;;;5032882;28;20407;-78
2021/03/01 01:01:25;;;;;;;25.60;11.15;;;2.80;99.90;;;;;;5035564;28;20063;-77
2021/03/01 01:03:51;;;;;;;31.23;12.30;;;2.70;99.90;;;;;;5035929;28;20036;-78
2021/03/01 01:06:25;;;;;;;29.48;12.60;;;2.70;99.90;;;;;;5019665;28;20040;-78
2021/03/01 01:08:51;;;;;;;29.38;11.95;;;2.70;99.90;;;;;;5037207;28;20032;-78
2021/03/01 01:11:17;;;;;;;33.53;12.73;;;2.70;99.90;;;;;;5036023;28;20082;-78
2021/03/01 01:13:43;;;;;;;28.02;12.18;;;2.80;99.90;;;;;;5037002;28;20094;-79
2021/03/01 01:16:09;;;;;;;29.98;13.73;;;2.90;99.90;;;;;;5035376;28;20140;-78
2021/03/01 01:18:34;;;;;;;24.13;11.30;;;2.90;99.90;;;;;;5035524;28;20035;-78
2021/03/01 01:21:00;;;;;;;33.17;12.45;;;3.00;99.90;;;;;;5035435;28;20033;-78
2021/03/01 01:23:26;;;;;;;27.33;12.55;;;3.00;99.90;;;;;;5052538;28;20485;-78
2021/03/01 01:25:52;;;;;;;30.80;13.18;;;3.00;99.90;;;;;;5051823;28;20036;-78
2021/03/01 01:28:18;;;;;;;32.10;13.32;;;3.10;99.90;;;;;;5037126;28;20394;-78
2021/03/01 01:30:44;;;;;;;30.27;11.82;;;3.10;99.90;;;;;;5037141;28;20036;-78
2021/03/01 01:33:10;;;;;;;29.70;12.23;;;3.10;99.90;;;;;;5052162;28;20134;-78
2021/03/01 01:35:35;;;;;;;30.40;12.43;;;3.10;99.90;;;;;;5036713;28;20129;-77
2021/03/01 01:38:01;;;;;;;26.50;11.68;;;3.10;99.90;;;;;;5037561;28;20124;-77
2021/03/01 01:40:27;;;;;;;28.35;12.23;;;3.10;99.90;;;;;;5036207;28;20107;-78
2021/03/01 01:42:53;;;;;;;32.45;13.15;;;3.10;99.90;;;;;;5046029;28;20044;-77
2021/03/01 01:45:25;;;;;;;30.13;13.40;;;3.00;99.90;;;;;;5035051;28;20029;-78
2021/03/01 01:47:52;;;;;;;26.35;12.38;;;2.90;99.90;;;;;;5018587;28;20029;-77
2021/03/01 01:50:19;;;;;;;28.70;12.35;;;3.00;99.90;;;;;;5036339;28;20063;-78
2021/03/01 01:52:46;;;;;;;28.90;12.00;;;3.00;99.90;;;;;;5042860;28;20056;-77
2021/03/01 01:55:12;;;;;;;28.30;12.23;;;3.00;99.90;;;;;;5035557;28;20075;-75
2021/03/01 01:57:40;;;;;;;26.83;12.85;;;3.00;99.90;;;;;;5036012;28;20848;-76
2021/03/01 02:00:10;;;;;;;30.45;11.90;;;3.00;99.90;;;;;;5050484;28;20044;-76
2021/03/01 02:02:38;;;;;;;28.15;12.90;;;3.00;99.90;;;;;;5027594;28;20079;-76
2021/03/01 02:05:07;;;;;;;35.13;13.05;;;3.00;99.90;;;;;;5043014;28;20492;-76
2021/03/01 02:07:42;;;;;;;30.17;11.80;;;3.10;99.90;;;;;;5034145;28;20066;-76
2021/03/01 02:10:48;;;;;;;34.10;12.98;;;3.00;99.90;;;;;;5042890;28;20731;-77
2021/03/01 02:13:35;;;;;;;32.88;12.35;;;3.00;99.90;;;;;;5035818;28;20043;-78
2021/03/01 02:16:08;;;;;;;28.73;12.25;;;3.10;99.90;;;;;;5027332;28;20048;-78
2021/03/01 02:18:33;;;;;;;29.58;13.00;;;3.10;99.90;;;;;;5035327;28;20430;-76
2021/03/01 02:21:10;;;;;;;28.48;12.15;;;3.20;99.90;;;;;;5030106;28;20044;-78
2021/03/01 02:23:38;;;;;;;36.47;12.95;;;3.20;99.90;;;;;;5022161;28;20079;-79
2021/03/01 02:26:09;;;;;;;30.88;13.02;;;3.20;99.90;;;;;;5035027;28;20033;-78
2021/03/01 02:28:43;;;;;;;34.88;12.85;;;3.20;99.90;;;;;;5034932;28;20083;-78
2021/03/01 02:31:10;;;;;;;33.25;13.82;;;3.10;99.90;;;;;;5035354;28;20043;-78
2021/03/01 02:33:48;;;;;;;31.40;13.35;;;3.20;99.90;;;;;;5034589;28;20136;-78
2021/03/01 02:36:24;;;;;;;40.60;14.68;;;3.40;99.90;;;;;;5034368;28;20037;-78
2021/03/01 02:38:51;;;;;;;34.30;14.25;;;3.40;99.90;;;;;;5033908;28;20033;-78
2021/03/01 02:41:19;;;;;;;30.30;13.95;;;3.30;99.90;;;;;;5034073;28;20025;-78
2021/03/01 02:43:45;;;;;;;31.77;12.65;;;3.30;99.90;;;;;;5026376;28;20029;-78
2021/03/01 02:46:11;;;;;;;35.10;14.27;;;3.30;99.90;;;;;;5019136;28;20033;-78
2021/03/01 02:48:40;;;;;;;37.03;13.40;;;3.30;99.90;;;;;;5034935;28;20440;-78
2021/03/01 02:51:06;;;;;;;33.15;12.40;;;3.30;99.90;;;;;;5033343;28;20047;-77
2021/03/01 02:53:33;;;;;;;35.05;13.38;;;3.30;99.90;;;;;;5034951;28;20504;-78
2021/03/01 02:55:59;;;;;;;35.38;13.35;;;3.30;99.90;;;;;;5034234;28;20025;-78
2021/03/01 02:58:30;;;;;;;37.53;13.63;;;3.30;99.90;;;;;;5035091;28;20060;-78
2021/03/01 03:00:58;;;;;;;32.13;13.55;;;3.30;99.90;;;;;;5033525;28;20950;-78
2021/03/01 03:03:25;;;;;;;29.10;12.57;;;3.20;99.90;;;;;;5033463;28;20124;-78
2021/03/01 03:05:52;;;;;;;28.48;12.55;;;3.20;99.90;;;;;;5049895;28;20033;-78
2021/03/01 03:08:18;;;;;;;30.70;12.43;;;3.20;99.90;;;;;;5021602;28;20037;-78
2021/03/01 03:10:46;;;;;;;32.28;12.27;;;3.20;99.90;;;;;;5015191;28;20127;-78
2021/03/01 03:13:13;;;;;;;28.95;12.40;;;3.20;99.90;;;;;;5032159;28;20916;-78
2021/03/01 03:15:44;;;;;;;25.88;12.45;;;3.10;99.90;;;;;;5034591;28;20091;-78
2021/03/01 03:18:11;;;;;;;26.23;12.50;;;3.00;99.90;;;;;;5035393;28;20051;-78
2021/03/01 03:20:38;;;;;;;25.60;11.65;;;3.00;99.90;;;;;;5034619;28;20044;-78
2021/03/01 03:23:04;;;;;;;27.05;11.20;;;3.00;99.90;;;;;;5033927;28;20025;-78
2021/03/01 03:25:30;;;;;;;31.40;12.80;;;3.00;99.90;;;;;;5016644;28;20064;-78
2021/03/01 03:27:56;;;;;;;30.98;13.02;;;2.90;99.90;;;;;;5035289;28;20160;-77
2021/03/01 03:30:22;;;;;;;30.15;12.90;;;2.90;99.90;;;;;;5037549;28;20560;-77
2021/03/01 03:32:49;;;;;;;28.73;12.82;;;3.00;99.90;;;;;;5038186;28;20041;-77
2021/03/01 03:35:15;;;;;;;32.25;13.02;;;3.00;99.90;;;;;;5042520;28;20030;-77
2021/03/01 03:37:54;;;;;;;28.45;11.88;;;3.00;99.90;;;;;;5036780;28;20029;-78
2021/03/01 03:40:20;;;;;;;27.83;12.48;;;3.10;99.90;;;;;;5029916;28;20758;-77
2021/03/01 03:42:47;;;;;;;27.15;12.27;;;3.10;99.90;;;;;;5035506;28;20036;-77
2021/03/01 03:45:16;;;;;;;31.00;12.88;;;3.10;99.90;;;;;;5053204;28;20033;-78
2021/03/01 03:47:49;;;;;;;28.95;13.10;;;3.10;99.90;;;;;;5038260;28;20120;-78
2021/03/01 03:50:15;;;;;;;28.98;12.35;;;3.10;99.90;;;;;;5051275;28;20036;-78
2021/03/01 03:52:47;;;;;;;27.25;12.38;;;3.20;99.90;;;;;;5038145;28;20841;-78
2021/03/01 03:55:18;;;;;;;25.60;12.50;;;3.20;99.90;;;;;;5033450;28;20083;-77
2021/03/01 03:57:53;;;;;;;29.92;12.18;;;3.20;99.90;;;;;;5024355;28;20049;-78
2021/03/01 04:00:22;;;;;;;31.48;12.30;;;3.20;99.90;;;;;;5018980;28;20036;-78
2021/03/01 04:02:49;;;;;;;33.63;13.02;;;3.20;99.90;;;;;;5035988;28;20045;-78
2021/03/01 04:05:16;;;;;;;28.05;11.98;;;3.30;99.90;;;;;;5037301;28;20044;-78
2021/03/01 04:07:44;;;;;;;30.92;12.35;;;3.30;99.90;;;;;;5038385;28;20146;-78
2021/03/01 04:10:11;;;;;;;34.22;13.48;;;3.30;99.90;;;;;;5035485;28;20057;-78
2021/03/01 04:12:39;;;;;;;29.30;12.20;;;3.30;99.90;;;;;;5038084;28;20047;-78
2021/03/01 04:15:12;;;;;;;29.20;12.23;;;3.30;99.90;;;;;;5036978;28;20921;-78
2021/03/01 04:17:40;;;;;;;31.15;12.07;;;3.30;99.90;;;;;;5050593;28;20037;-78
2021/03/01 04:20:08;;;;;;;29.85;12.52;;;3.30;99.90;;;;;;5038759;28;20837;-78
2021/03/01 04:22:35;;;;;;;32.67;13.40;;;3.30;99.90;;;;;;5038575;28;20108;-78
2021/03/01 04:25:02;;;;;;;28.73;12.77;;;3.30;99.90;;;;;;5037752;28;20024;-77
2021/03/01 04:27:29;;;;;;;31.27;12.40;;;3.30;99.90;;;;;;5036523;28;20041;-77
2021/03/01 04:29:56;;;;;;;29.13;12.10;;;3.20;99.90;;;;;;5037172;28;20032;-78
2021/03/01 04:32:23;;;;;;;27.80;12.43;;;3.20;99.90;;;;;;5036540;28;20041;-77
2021/03/01 04:34:50;;;;;;;34.63;13.65;;;3.20;99.90;;;;;;5037807;28;20056;-77
2021/03/01 04:37:16;;;;;;;31.45;13.13;;;3.20;99.90;;;;;;5019462;28;20124;-77
2021/03/01 04:39:42;;;;;;;30.40;12.52;;;3.20;99.90;;;;;;5049510;28;20806;-78
2021/03/01 04:42:07;;;;;;;30.67;13.52;;;3.20;99.90;;;;;;5052772;28;20029;-78
2021/03/01 04:44:33;;;;;;;30.75;12.63;;;3.20;99.90;;;;;;5036254;28;20494;-78
2021/03/01 04:47:00;;;;;;;27.13;12.25;;;3.20;99.90;;;;;;5037844;28;20043;-78
2021/03/01 04:49:27;;;;;;;32.42;13.20;;;3.30;99.90;;;;;;5038062;28;20783;-78
2021/03/01 04:51:53;;;;;;;32.97;13.25;;;3.30;99.90;;;;;;5036506;28;20592;-77
2021/03/01 04:54:21;;;;;;;33.05;14.02;;;3.20;99.90;;;;;;5037068;28;20120;-78
2021/03/01 04:56:48;;;;;;;30.63;13.07;;;3.20;99.90;;;;;;5037513;28;20665;-77
2021/03/01 04:59:18;;;;;;;30.20;13.15;;;3.30;99.90;;;;;;5036775;28;20142;-77
2021/03/01 05:01:48;;;;;;;34.17;13.85;;;3.30;99.90;;;;;;5041211;28;20043;-77
2021/03/01 05:04:14;;;;;;;32.25;12.40;;;3.30;99.90;;;;;;5037534;28;20029;-77
2021/03/01 05:06:40;;;;;;;32.00;13.30;;;3.30;99.90;;;;;;5037406;28;20037;-76
2021/03/01 05:09:06;;;;;;;35.10;15.43;;;3.40;99.90;;;;;;5052652;28;20145;-78
2021/03/01 05:11:38;;;;;;;31.77;13.48;;;3.40;99.90;;;;;;5049567;28;20132;-78
2021/03/01 05:14:05;;;;;;;32.10;13.45;;;3.30;99.90;;;;;;5049130;28;20064;-78
2021/03/01 05:16:32;;;;;;;32.25;13.65;;;3.30;99.90;;;;;;5031353;28;20037;-78
2021/03/01 05:18:58;;;;;;;30.42;13.02;;;3.30;99.90;;;;;;5015897;28;20450;-78
2021/03/01 05:21:25;;;;;;;28.90;12.85;;;3.30;99.90;;;;;;5025619;28;20085;-78
2021/03/01 05:23:52;;;;;;;37.25;13.95;;;3.30;99.90;;;;;;5033700;28;20033;-79
2021/03/01 05:26:18;;;;;;;31.15;13.63;;;3.30;99.90;;;;;;5050279;28;20148;-78
2021/03/01 05:28:45;;;;;;;31.33;13.45;;;3.30;99.90;;;;;;5037211;28;20043;-78
2021/03/01 05:31:12;;;;;;;29.33;12.68;;;3.30;99.90;;;;;;5025979;28;20037;-78
2021/03/01 05:33:38;;;;;;;35.25;13.95;;;3.40;99.90;;;;;;5029104;28;20043;-78
2021/03/01 05:36:04;;;;;;;30.05;13.45;;;3.40;99.90;;;;;;5028610;28;20038;-78
2021/03/01 05:38:30;;;;;;;36.05;14.25;;;3.30;99.90;;;;;;5032028;28;20033;-78
2021/03/01 05:40:57;;;;;;;44.42;17.83;;;3.40;99.90;;;;;;5032923;28;20599;-78
2021/03/01 05:43:27;;;;;;;42.90;18.33;;;3.40;99.90;;;;;;5032422;28;20068;-72
2021/03/01 05:45:53;;;;;;;55.25;22.63;;;3.40;99.90;;;;;;5023849;28;20042;-72
2021/03/01 05:48:22;;;;;;;63.88;27.63;;;3.40;99.90;;;;;;5035311;28;20032;-73
2021/03/01 05:51:00;;;;;;;45.67;18.27;;;3.40;99.90;;;;;;5032488;28;20063;-72
2021/03/01 05:53:32;;;;;;;36.92;16.10;;;3.50;99.90;;;;;;5043166;28;20236;-72
2021/03/01 05:56:00;;;;;;;35.78;15.75;;;3.50;99.90;;;;;;5029579;28;20724;-72
2021/03/01 05:58:30;;;;;;;34.65;15.25;;;3.60;99.90;;;;;;5044700;28;20044;-72
2021/03/01 06:01:15;;;;;;;41.60;16.73;;;3.60;99.90;;;;;;5040292;28;20033;-72
2021/03/01 06:03:41;;;;;;;37.15;14.23;;;3.60;99.90;;;;;;5030048;28;20764;-72
2021/03/01 06:06:08;;;;;;;37.40;15.45;;;3.60;99.90;;;;;;5031054;28;20120;-72
2021/03/01 06:08:34;;;;;;;33.13;14.50;;;3.50;99.90;;;;;;5020912;28;20041;-72
2021/03/01 06:11:05;;;;;;;35.03;13.98;;;3.50;99.90;;;;;;5029406;28;20037;-72
2021/03/01 06:13:32;;;;;;;38.30;14.48;;;3.50;99.90;;;;;;5041912;28;20041;-72
2021/03/01 06:15:58;;;;;;;32.38;13.25;;;3.50;99.90;;;;;;5025889;28;20382;-72
2021/03/01 06:18:25;;;;;;;34.97;14.35;;;3.50;99.90;;;;;;5026895;28;20609;-71
2021/03/01 06:20:52;;;;;;;37.42;14.18;;;3.60;99.90;;;;;;5047167;28;20032;-72
2021/03/01 06:23:32;;;;;;;36.47;13.90;;;3.70;99.90;;;;;;5026873;28;20076;-72
2021/03/01 06:26:26;;;;;;;35.83;13.63;;;3.70;99.90;;;;;;5020410;28;20048;-72
2021/03/01 06:29:03;;;;;;;37.30;14.15;;;3.70;99.90;;;;;;5043795;28;20041;-72
2021/03/01 06:31:40;;;;;;;34.15;14.13;;;3.70;99.90;;;;;;5046305;28;20045;-72
2021/03/01 06:34:26;;;;;;;35.75;13.18;;;3.70;99.90;;;;;;5029535;28;20041;-72
2021/03/01 06:36:59;;;;;;;37.20;14.45;;;3.80;99.90;;;;;;5041567;28;20060;-72
2021/03/01 06:39:47;;;;;;;39.47;15.20;;;3.70;99.90;;;;;;5028044;28;20136;-72
2021/03/01 06:42:19;;;;;;;30.67;13.75;;;3.80;99.90;;;;;;5024043;28;20027;-71
2021/03/01 06:44:48;;;;;;;33.15;14.25;;;3.70;99.90;;;;;;5029243;28;20036;-72
2021/03/01 06:47:15;;;;;;;41.50;15.40;;;3.80;99.90;;;;;;5023247;28;20037;-71
2021/03/01 06:49:43;;;;;;;32.67;13.68;;;3.90;99.90;;;;;;5029555;28;20124;-71
2021/03/01 06:52:09;;;;;;;35.17;14.55;;;4.00;99.90;;;;;;5015937;28;20363;-72
2021/03/01 06:54:35;;;;;;;30.77;13.45;;;4.00;99.90;;;;;;5049939;28;20505;-72
2021/03/01 06:57:01;;;;;;;31.95;13.50;;;4.00;99.90;;;;;;5033700;28;20520;-71
2021/03/01 06:59:27;;;;;;;31.60;12.90;;;4.00;99.90;;;;;;5015354;28;20144;-73
2021/03/01 07:01:56;;;;;;;32.08;13.90;;;4.00;99.90;;;;;;5040142;28;20043;-72
2021/03/01 07:04:31;;;;;;;30.67;13.30;;;4.10;99.90;;;;;;5026474;28;20029;-72
2021/03/01 07:06:59;;;;;;;35.83;13.23;;;4.00;99.90;;;;;;5028879;28;20041;-71
2021/03/01 07:09:27;;;;;;;32.30;12.98;;;4.10;99.90;;;;;;5046690;28;20091;-71
2021/03/01 07:11:54;;;;;;;32.75;13.23;;;4.10;99.90;;;;;;5026314;28;20132;-71
2021/03/01 07:14:23;;;;;;;32.13;13.48;;;4.10;99.90;;;;;;5030030;28;20032;-71
2021/03/01 07:16:50;;;;;;;32.83;12.38;;;4.20;99.90;;;;;;5026614;28;20036;-71
2021/03/01 07:19:21;;;;;;;31.70;13.77;;;4.20;99.90;;;;;;5026667;28;20037;-71
2021/03/01 07:21:51;;;;;;;31.48;14.13;;;4.30;99.90;;;;;;5029353;28;20068;-72
2021/03/01 07:24:19;;;;;;;33.20;14.57;;;4.40;99.90;;;;;;5029559;28;20033;-71
2021/03/01 07:26:45;;;;;;;35.10;14.48;;;4.50;99.90;;;;;;5037367;28;20068;-72
2021/03/01 07:29:19;;;;;;;33.65;14.23;;;4.60;99.90;;;;;;5033878;28;20092;-72
2021/03/01 07:31:59;;;;;;;29.45;12.70;;;4.60;99.90;;;;;;5034597;28;20040;-72
2021/03/01 07:34:24;;;;;;;32.55;14.43;;;4.60;99.90;;;;;;5029968;28;20790;-72
2021/03/01 07:36:53;;;;;;;34.08;14.15;;;4.60;99.90;;;;;;5029701;28;20108;-72
2021/03/01 07:39:19;;;;;;;33.75;13.43;;;4.60;99.90;;;;;;5033616;28;20059;-72
2021/03/01 07:41:46;;;;;;;33.65;14.55;;;4.80;99.90;;;;;;5009223;28;20089;-72
2021/03/01 07:44:14;;;;;;;28.70;13.48;;;4.70;99.90;;;;;;5032741;28;20547;-72
2021/03/01 07:46:45;;;;;;;35.20;14.77;;;4.70;99.90;;;;;;5046740;28;20045;-72
2021/03/01 07:49:34;;;;;;;34.22;14.85;;;4.90;99.90;;;;;;5034205;28;20044;-72
2021/03/01 07:52:00;;;;;;;33.30;14.73;;;4.90;99.90;;;;;;5028116;28;20048;-72
2021/03/01 07:54:56;;;;;;;34.47;13.63;;;4.90;99.90;;;;;;5017745;28;20038;-72
2021/03/01 07:57:27;;;;;;;35.03;14.20;;;5.10;99.90;;;;;;5028092;28;20519;-73
2021/03/01 07:59:53;;;;;;;34.88;15.48;;;5.00;99.90;;;;;;5032126;28;20061;-72
2021/03/01 08:02:24;;;;;;;34.47;14.20;;;5.20;99.90;;;;;;5028798;28;20041;-72
2021/03/01 08:04:52;;;;;;;31.50;14.70;;;5.20;99.90;;;;;;5036307;28;20417;-74
2021/03/01 08:07:35;;;;;;;37.05;15.65;;;5.30;99.90;;;;;;5037692;28;20711;-72
2021/03/01 08:10:00;;;;;;;30.63;14.20;;;5.40;99.90;;;;;;5031211;28;20037;-70
2021/03/01 08:12:29;;;;;;;32.63;14.50;;;5.50;99.90;;;;;;5034259;28;20063;-73
2021/03/01 08:15:00;;;;;;;38.03;15.45;;;5.60;99.90;;;;;;5033793;28;20040;-72
2021/03/01 08:17:25;;;;;;;31.75;14.82;;;5.60;99.90;;;;;;5051155;28;20055;-72
2021/03/01 08:19:55;;;;;;;34.00;14.68;;;5.70;99.90;;;;;;5033583;28;20029;-71
2021/03/01 08:22:21;;;;;;;38.35;16.42;;;5.80;99.90;;;;;;5026266;28;20040;-72
2021/03/01 08:24:46;;;;;;;37.47;16.77;;;5.80;99.90;;;;;;5029377;28;20056;-73
2021/03/01 08:27:27;;;;;;;34.17;14.98;;;5.80;99.90;;;;;;5040638;28;20060;-74
2021/03/01 08:30:21;;;;;;;35.88;16.77;;;5.90;99.90;;;;;;5027040;28;20565;-75
2021/03/01 08:33:14;;;;;;;35.45;15.68;;;5.90;99.90;;;;;;5035932;28;20029;-76
2021/03/01 08:35:44;;;;;;;41.05;15.93;;;6.10;99.90;;;;;;4999522;28;20064;-76
2021/03/01 08:38:11;;;;;;;36.58;15.02;;;6.10;99.90;;;;;;5037315;28;20064;-78
2021/03/01 08:40:53;;;;;;;35.45;15.05;;;6.10;99.90;;;;;;5048675;28;20086;-77
2021/03/01 08:43:40;;;;;;;38.15;16.00;;;6.00;99.90;;;;;;5031004;28;20040;-77
2021/03/01 08:46:19;;;;;;;37.20;16.15;;;6.10;99.90;;;;;;5033195;28;20042;-77
2021/03/01 08:48:50;;;;;;;68.05;25.83;;;6.20;99.90;;;;;;5047407;28;20116;-77
2021/03/01 08:51:17;;;;;;;48.20;17.60;;;6.30;99.90;;;;;;5037445;28;20519;-77
2021/03/01 08:53:43;;;;;;;34.55;14.43;;;6.30;99.90;;;;;;5036431;28;20037;-77
2021/03/01 08:56:20;;;;;;;27.83;12.98;;;6.40;99.90;;;;;;5041154;28;20045;-77
2021/03/01 08:58:45;;;;;;;31.65;13.30;;;6.40;99.90;;;;;;5020078;28;20037;-77
2021/03/01 09:01:11;;;;;;;29.30;13.50;;;6.30;99.90;;;;;;5028882;28;20025;-77
2021/03/01 09:03:42;;;;;;;32.30;12.88;;;6.40;99.90;;;;;;5020115;28;20045;-77
2021/03/01 09:06:16;;;;;;;30.23;13.52;;;6.50;99.90;;;;;;5026327;28;20923;-76
2021/03/01 09:08:56;;;;;;;29.60;13.97;;;6.50;99.90;;;;;;5050074;28;20154;-77
2021/03/01 09:11:24;;;;;;;32.85;13.90;;;6.50;99.90;;;;;;5046858;28;20648;-77
2021/03/01 09:13:51;;;;;;;28.45;13.63;;;6.60;99.90;;;;;;5031305;28;20048;-78
2021/03/01 09:16:25;;;;;;;30.38;14.27;;;6.90;99.90;;;;;;5031205;28;20045;-76
2021/03/01 09:19:12;;;;;;;33.28;13.32;;;7.00;99.90;;;;;;5037025;28;20393;-78
2021/03/01 09:21:40;;;;;;;31.10;13.15;;;6.90;99.90;;;;;;5022872;28;20040;-78
2021/03/01 09:24:13;;;;;;;28.25;12.88;;;6.80;99.90;;;;;;5032763;28;20095;-78
2021/03/01 09:26:40;;;;;;;24.08;10.90;;;7.10;99.90;;;;;;5022288;28;20056;-78
2021/03/01 09:29:20;;;;;;;17.05;8.45;;;7.10;99.90;;;;;;5035475;28;20052;-78
2021/03/01 09:31:56;;;;;;;18.92;8.18;;;7.00;99.90;;;;;;5031878;28;20871;-80
2021/03/01 09:34:26;;;;;;;15.02;8.13;;;7.10;99.90;;;;;;5021881;28;20033;-79
2021/03/01 09:36:52;;;;;;;18.08;8.52;;;7.10;99.90;;;;;;5034733;28;20044;-78
2021/03/01 09:39:25;;;;;;;19.35;9.00;;;7.10;99.90;;;;;;5029562;28;20033;-74
2021/03/01 09:41:52;;;;;;;14.65;8.05;;;7.10;99.90;;;;;;5040133;28;20071;-74
2021/03/01 09:44:27;;;;;;;17.70;7.75;;;6.80;99.90;;;;;;5034524;28;20148;-74
2021/03/01 09:46:56;;;;;;;16.80;7.28;;;6.80;99.90;;;;;;5040913;28;20029;-74
2021/03/01 09:49:22;;;;;;;20.60;8.63;;;6.90;99.90;;;;;;5028448;28;20084;-74
2021/03/01 09:51:49;;;;;;;25.75;12.80;;;7.10;99.90;;;;;;5041152;28;20511;-75
2021/03/01 09:54:15;;;;;;;26.23;10.73;;;7.30;99.90;;;;;;5037491;28;20037;-74
2021/03/01 09:56:55;;;;;;;27.85;13.35;;;7.50;99.90;;;;;;5048300;28;20524;-73
2021/03/01 09:59:38;;;;;;;18.13;8.82;;;7.40;99.90;;;;;;5038855;28;20035;-73
2021/03/01 10:02:05;;;;;;;17.83;8.70;;;7.50;99.90;;;;;;5040638;28;20110;-78
2021/03/01 10:04:30;;;;;;;19.13;8.45;;;7.30;99.90;;;;;;5026386;28;20040;-73
2021/03/01 10:06:56;;;;;;;20.02;9.18;;;7.20;99.90;;;;;;5029598;28;20033;-75
2021/03/01 10:09:31;;;;;;;19.90;8.55;;;7.30;99.90;;;;;;5032459;28;20075;-73
2021/03/01 10:12:00;;;;;;;17.58;8.35;;;7.10;99.90;;;;;;5026577;28;20132;-73
2021/03/01 10:14:30;;;;;;;20.33;9.07;;;7.20;99.90;;;;;;5026610;28;20154;-73
2021/03/01 10:16:55;;;;;;;16.55;7.82;;;7.50;99.90;;;;;;5033043;28;20106;-73
2021/03/01 10:19:22;;;;;;;18.35;8.13;;;7.30;99.90;;;;;;5037170;28;20041;-73
2021/03/01 10:21:49;;;;;;;18.52;8.07;;;7.30;99.90;;;;;;5033529;28;20021;-74
2021/03/01 10:24:20;;;;;;;21.42;7.85;;;7.30;99.90;;;;;;5026473;28;20128;-74
2021/03/01 10:26:53;;;;;;;19.02;8.02;;;7.30;99.90;;;;;;5028561;28;20110;-74
2021/03/01 10:29:33;;;;;;;16.10;6.90;;;7.40;99.90;;;;;;5032343;28;20080;-74
2021/03/01 10:32:01;;;;;;;15.02;7.40;;;7.60;99.90;;;;;;5021245;28;20600;-74
2021/03/01 10:34:37;;;;;;;14.45;7.03;;;7.80;99.90;;;;;;5046188;28;20116;-74
2021/03/01 10:37:08;;;;;;;16.60;7.35;;;7.50;99.90;;;;;;5036284;28;20033;-74
2021/03/01 10:39:37;;;;;;;21.02;8.00;;;7.50;99.90;;;;;;5026034;28;20064;-74
2021/03/01 10:42:13;;;;;;;14.45;7.78;;;7.70;99.90;;;;;;5045757;28;21204;-74
2021/03/01 10:44:41;;;;;;;13.65;6.63;;;7.90;99.90;;;;;;5035582;28;20052;-74
2021/03/01 10:47:17;;;;;;;17.05;8.45;;;7.80;99.90;;;;;;5025708;28;20045;-74
2021/03/01 10:49:44;;;;;;;16.23;7.97;;;7.90;99.90;;;;;;5028956;28;20802;-73
2021/03/01 10:52:11;;;;;;;15.90;8.35;;;8.10;99.90;;;;;;5028184;28;20036;-74
2021/03/01 10:54:37;;;;;;;254.82;133.32;;;7.80;99.90;;;;;;5027788;28;20075;-78
2021/03/01 10:57:04;;;;;;;18.40;10.27;;;7.60;99.90;;;;;;5033763;28;20544;-78
2021/03/01 10:59:30;;;;;;;16.48;7.85;;;7.90;99.90;;;;;;5014610;28;20061;-81
2021/03/01 11:01:55;;;;;;;18.63;8.48;;;7.80;99.90;;;;;;5037670;28;20194;-79
2021/03/01 11:04:21;;;;;;;28.10;11.18;;;7.80;99.90;;;;;;5038553;28;20068;-79
2021/03/01 11:06:48;;;;;;;26.02;11.20;;;7.70;99.90;;;;;;5007228;28;20128;-78
2021/03/01 11:09:17;;;;;;;20.58;10.43;;;7.60;99.90;;;;;;5018060;28;20106;-78
2021/03/01 11:11:47;;;;;;;19.02;9.07;;;7.70;99.90;;;;;;5030990;28;20056;-78
2021/03/01 11:14:13;;;;;;;18.48;9.10;;;7.80;99.90;;;;;;5048551;28;20043;-73
2021/03/01 11:16:39;;;;;;;19.05;8.60;;;7.70;99.90;;;;;;5039511;28;20070;-73
2021/03/01 11:19:06;;;;;;;15.27;8.32;;;7.70;99.90;;;;;;5027853;28;20853;-74
2021/03/01 11:21:32;;;;;;;16.33;8.10;;;7.80;99.90;;;;;;5032418;28;20029;-74
2021/03/01 11:23:59;;;;;;;21.35;10.07;;;8.10;99.90;;;;;;5042938;28;20071;-74
2021/03/01 11:26:25;;;;;;;15.13;7.95;;;8.30;99.90;;;;;;5019688;28;20064;-75
2021/03/01 11:28:51;;;;;;;16.70;7.82;;;8.20;99.90;;;;;;5029346;28;20040;-73
2021/03/01 11:31:17;;;;;;;17.73;9.13;;;8.00;99.90;;;;;;5030555;28;20040;-74
2021/03/01 11:33:43;;;;;;;18.80;8.25;;;8.30;99.90;;;;;;5047173;28;20033;-72
2021/03/01 11:36:09;;;;;;;17.45;8.00;;;8.20;99.90;;;;;;5030090;28;20060;-74
2021/03/01 11:38:35;;;;;;;16.92;7.97;;;8.30;99.90;;;;;;5040471;28;20072;-74
2021/03/01 11:41:01;;;;;;;15.43;7.25;;;7.60;99.90;;;;;;5032450;28;20517;-74
2021/03/01 11:43:27;;;;;;;14.35;8.07;;;7.30;99.90;;;;;;5045233;28;20036;-74
2021/03/01 11:45:52;;;;;;;15.48;7.45;;;7.50;99.90;;;;;;5042143;28;20033;-74
2021/03/01 11:48:19;;;;;;;15.57;7.55;;;8.00;99.90;;;;;;5028129;28;20609;-74
2021/03/01 11:50:47;;;;;;;21.48;8.18;;;8.30;99.90;;;;;;5033495;28;20616;-74
2021/03/01 11:53:14;;;;;;;17.15;7.68;;;8.60;99.90;;;;;;5038864;28;20025;-74
2021/03/01 11:55:40;;;;;;;17.60;7.60;;;8.90;99.90;;;;;;5025227;28;20579;-74
2021/03/01 11:58:07;;;;;;;14.38;7.30;;;9.40;99.90;;;;;;5047725;28;20842;-75
2021/03/01 12:00:32;;;;;;;17.27;6.93;;;9.20;99.90;;;;;;5046962;28;20132;-75
2021/03/01 12:02:58;;;;;;;15.93;7.57;;;9.10;99.90;;;;;;5029789;28;20108;-74
2021/03/01 12:05:24;;;;;;;14.75;7.10;;;9.00;99.90;;;;;;5035239;28;20115;-74
2021/03/01 12:07:50;;;;;;;17.55;7.78;;;8.90;99.90;;;;;;5044763;28;20037;-75
2021/03/01 12:10:17;;;;;;;15.38;7.80;;;8.80;99.90;;;;;;5013868;28;20037;-75
2021/03/01 12:12:43;;;;;;;18.10;7.93;;;8.60;99.90;;;;;;5049301;28;20782;-74
2021/03/01 12:15:09;;;;;;;18.35;8.70;;;8.80;99.90;;;;;;5035748;28;20041;-75
2021/03/01 12:17:36;;;;;;;13.63;6.57;;;8.90;99.90;;;;;;5014883;28;20033;-74
2021/03/01 12:20:04;;;;;;;13.55;6.50;;;9.00;99.90;;;;;;5045317;28;20029;-74
2021/03/01 12:22:30;;;;;;;17.27;8.05;;;9.40;99.90;;;;;;5026300;28;20104;-71
2021/03/01 12:24:55;;;;;;;16.90;7.45;;;10.10;99.90;;;;;;5027612;28;20037;-74
2021/03/01 12:27:21;;;;;;;17.70;7.80;;;10.00;99.90;;;;;;5029416;28;20029;-74
2021/03/01 12:29:47;;;;;;;14.75;7.40;;;10.10;99.90;;;;;;5037940;28;21040;-75
2021/03/01 12:32:13;;;;;;;11.05;6.55;;;10.40;99.70;;;;;;5014513;28;20083;-74
2021/03/01 12:34:41;;;;;;;15.60;6.75;;;10.60;99.80;;;;;;5030232;28;20174;-75
2021/03/01 12:37:08;;;;;;;11.57;6.25;;;11.10;98.40;;;;;;5032425;28;20121;-74
2021/03/01 12:39:36;;;;;;;13.93;7.13;;;11.80;96.30;;;;;;5029763;28;20055;-74
2021/03/01 12:42:02;;;;;;;12.52;6.70;;;12.50;94.00;;;;;;5037637;28;20041;-74
2021/03/01 12:44:29;;;;;;;14.50;6.97;;;12.60;93.60;;;;;;5027356;28;20467;-74
2021/03/01 12:46:54;;;;;;;14.80;6.90;;;13.10;91.60;;;;;;5041929;28;20033;-74